Göteborg, Sweden

08:18 AM CET on December 13, 2017 (GMT +0100)
Carl Grimbergsgatan 32 | | Change Station

Elev 89 ft 57.69 °N, 11.96 °E | Updated 45 seconds ago

Molnigt
Molnigt
40.5 °F
Feels Like 37 °F
N
5.4
Vind Växlande Vind from Nordlig
Gusts 9.2 miles/tim

Idag
High -- | Low -- °F
--% Chance of Precip.
Yesterday
High -- | Low -- °F
Precip. -- tum
Lufttryck 29.47 tum
Sikt 6.2 miles
Molnigt Mestadels molnigt 900 ft
Vindavkylning 37 °F
Daggpunkt 35 °F
Luftfuktighet 81%
Rainfall 0.00 tum
Snow Depth Not available.
8:47 AM 3:25 PM
Fjärde kvarteret, 21% visible
METAR ESGG 130650Z 21015KT 9999 BKN009 02/01 Q0998 R21/29//95
Lufttryck 29.47 tum
Sikt 6.2 miles
Molnigt Mestadels molnigt 900 ft
Vindavkylning 37 °F
Daggpunkt 35 °F
Luftfuktighet 81%
Rainfall 0.00 tum
Snow Depth Not available.
8:47 AM 3:25 PM
Fjärde kvarteret, 21% visible
METAR ESGG 130650Z 21015KT 9999 BKN009 02/01 Q0998 R21/29//95

Get Severe Weather Alerts

Thanks for signing up!

Be on the lookout for a verification email in your inbox.

You'll start receiving the daily forecast at 6 AM.

×

10-Day Weather Forecast

×

Almanac

Astronomi

Dec. 13, 2017 Rise Set
Actual Time
Civil Twilight
Nautical Twilight
Astronomical Twilight
Månen
Length Of Visible Light
Dagens längd
Tomorrow will be .
, % of the Moon is Illuminated

Today's Extremes

Country Highs Country Lows

Community

WunderPhotos

Category 6

Welcome to Category 6. This is the collective home for Weather Underground's featured writeups by Dr. Jeff Masters (right), Bob Henson (left), Chris Burt, and other regular contributors.

Nearby

Air Quality

  Air Quality AQ Index Pollutant
Not available.

Snödjup

Station Depth Elevation

Earthquake Activity

Stad Distance Mag. Time & Date
Minimum magnitude displayed is 2.5.

Coastal Water Temperatures

Plats Temperatur

Stations

Nearby Weather Stations

Station Location Temp Vindavkylning Daggpunkt Luftfuktighet Vind Precip. Elev Uppdaterad Type